Time;durP1;ratioP1;P1;durP2;ratioP2;P2;SDS_P1;SDS_P2;PMS_P1;PMS_P2;Temp;Humidity;BMP_temperature;BMP_pressure;BME280_temperature;BME280_humidity;BME280_pressure;Samples;Min_cycle;Max_cycle;Signal;HPM_P1;HPM_P2
2024/01/19 00:05:05;;;;;;;36.70;24.50;;;;;;;-2.91;100.00;98375.19;432485;1258;142368;-61
2024/01/19 00:15:12;;;;;;;34.80;21.20;;;;;;;-2.96;100.00;98397.59;434885;1260;140085;-61
2024/01/19 00:25:18;;;;;;;27.70;19.00;;;;;;;-2.97;100.00;98418.86;433833;1257;140269;-71
2024/01/19 00:35:23;;;;;;;32.80;22.10;;;;;;;-3.06;100.00;98444.78;432844;1260;141463;-63
2024/01/19 00:45:28;;;;;;;;;;;;;;;-3.17;100.00;98459.95;432640;1260;141427;-63
2024/01/19 00:55:33;;;;;;;30.90;21.10;;;;;;;-3.23;100.00;98477.58;432693;1260;127524;-64
2024/01/19 01:05:38;;;;;;;;;;;;;;;-3.34;100.00;98482.83;436626;1258;140027;-63
2024/01/19 01:15:44;;;;;;;37.80;23.80;;;;;;;-3.48;100.00;98504.55;432728;1260;126443;-65
2024/01/19 01:25:50;;;;;;;39.80;26.30;;;;;;;-3.55;100.00;98531.06;432727;1258;140915;-64
2024/01/19 01:35:56;;;;;;;32.20;22.30;;;;;;;-3.55;100.00;98545.61;432673;1260;139881;-62
2024/01/19 01:46:02;;;;;;;35.20;23.20;;;;;;;-3.54;100.00;98558.05;433128;1258;141051;-62
2024/01/19 01:56:08;;;;;;;26.40;19.40;;;;;;;-3.56;100.00;98566.33;436666;1257;141722;-63
2024/01/19 02:06:14;;;;;;;30.10;18.80;;;;;;;-3.64;100.00;98583.11;433464;1260;140480;-62
2024/01/19 02:16:20;;;;;;;23.10;14.60;;;;;;;-3.74;100.00;98595.98;432820;1258;142176;-62
2024/01/19 02:26:25;;;;;;;;;;;;;;;-3.88;100.00;98610.99;432691;1260;190098;-66
2024/01/19 02:36:31;;;;;;;25.00;16.90;;;;;;;-3.98;100.00;98616.84;432636;1259;126835;-62
2024/01/19 02:46:38;;;;;;;24.90;16.30;;;;;;;-4.10;100.00;98633.31;432484;1259;141196;-62
2024/01/19 02:56:44;;;;;;;28.20;19.50;;;;;;;-4.20;100.00;98657.42;433555;1255;141271;-63
2024/01/19 03:06:50;;;;;;;30.30;18.50;;;;;;;-4.24;100.00;98664.35;434252;1260;141390;-63
2024/01/19 03:16:55;;;;;;;26.00;16.50;;;;;;;-4.31;100.00;98675.40;432639;1260;141002;-63
2024/01/19 03:27:01;;;;;;;19.60;14.10;;;;;;;-4.36;100.00;98703.17;432784;1257;140313;-63
2024/01/19 03:37:07;;;;;;;13.90;10.60;;;;;;;-4.39;100.00;98706.81;441677;1255;140495;-64
2024/01/19 03:47:13;;;;;;;11.30;7.10;;;;;;;-4.47;100.00;98737.54;433290;1256;140993;-63
2024/01/19 03:57:18;;;;;;;11.30;7.80;;;;;;;-4.61;100.00;98750.40;432735;1260;140062;-63
2024/01/19 04:07:24;;;;;;;9.60;7.40;;;;;;;-4.73;100.00;98765.79;432654;1257;140826;-63
2024/01/19 04:17:30;;;;;;;11.10;8.60;;;;;;;-4.76;100.00;98784.79;433052;1257;140503;-63
2024/01/19 04:27:36;;;;;;;16.50;9.90;;;;;;;-4.73;100.00;98806.43;433005;1256;142301;-63
2024/01/19 04:37:42;;;;;;;16.30;9.50;;;;;;;-4.66;100.00;98813.51;432951;1256;141350;-63
2024/01/19 04:47:48;;;;;;;13.60;10.00;;;;;;;-4.72;100.00;98817.17;432756;1257;141237;-63
2024/01/19 04:57:54;;;;;;;18.00;11.80;;;;;;;-4.93;100.00;98829.75;434208;1255;140136;-63
2024/01/19 05:08:00;;;;;;;20.80;15.70;;;;;;;-5.06;100.00;98829.57;432958;1260;140065;-63
2024/01/19 05:18:06;;;;;;;21.90;17.50;;;;;;;-5.31;100.00;98836.36;432678;1260;140859;-63
2024/01/19 05:28:12;;;;;;;16.40;12.70;;;;;;;-5.62;100.00;98855.45;433924;1255;140235;-63
2024/01/19 05:38:18;;;;;;;15.30;11.20;;;;;;;-5.79;100.00;98861.24;432877;1259;140209;-63
2024/01/19 05:48:25;;;;;;;19.20;14.00;;;;;;;-5.84;100.00;98872.20;432542;1256;140290;-63
2024/01/19 05:58:31;;;;;;;20.10;13.50;;;;;;;-5.69;100.00;98878.20;432634;1260;141416;-63
2024/01/19 06:08:36;;;;;;;20.70;15.10;;;;;;;-5.62;100.00;98890.92;432937;1260;140359;-64
2024/01/19 06:18:42;;;;;;;18.90;14.40;;;;;;;-5.58;100.00;98910.67;432911;1257;139731;-63
2024/01/19 06:28:48;;;;;;;22.30;16.30;;;;;;;-5.63;100.00;98927.43;432649;1260;140514;-63
2024/01/19 06:38:54;;;;;;;20.80;15.60;;;;;;;-5.59;100.00;98939.34;432685;1260;140145;-63
2024/01/19 06:49:00;;;;;;;20.00;15.90;;;;;;;-5.59;100.00;98942.23;432804;1257;141621;-62
2024/01/19 06:59:05;;;;;;;21.20;16.60;;;;;;;-5.61;100.00;98962.20;433097;1260;141228;-63
2024/01/19 07:09:12;;;;;;;22.60;17.50;;;;;;;-5.54;100.00;98970.16;432861;1257;140464;-61
2024/01/19 07:19:18;;;;;;;29.10;20.60;;;;;;;-5.48;100.00;98980.34;434890;1257;139863;-61
2024/01/19 07:29:24;;;;;;;34.60;21.70;;;;;;;-5.46;100.00;98987.51;432327;1259;140388;-61
2024/01/19 07:39:30;;;;;;;35.30;26.00;;;;;;;-5.42;100.00;98983.71;432692;1260;140042;-60
2024/01/19 07:49:36;;;;;;;36.60;22.70;;;;;;;-5.20;100.00;98982.48;432674;1255;141376;-69
2024/01/19 07:59:43;;;;;;;33.40;24.30;;;;;;;-4.97;100.00;98990.61;432826;1255;141335;-64
2024/01/19 08:09:49;;;;;;;30.20;21.10;;;;;;;-4.73;100.00;98989.00;434521;1257;141445;-65
2024/01/19 08:19:55;;;;;;;27.20;19.90;;;;;;;-4.27;100.00;98988.44;433118;1259;140430;-64
2024/01/19 08:29:59;;;;;;;;;;;;;;;-4.04;100.00;98993.77;433302;1256;140172;-65
2024/01/19 08:40:07;;;;;;;31.10;19.40;;;;;;;-3.83;100.00;99003.90;433475;1260;127573;-64
2024/01/19 08:50:13;;;;;;;22.80;16.60;;;;;;;-3.29;100.00;99019.48;433244;1259;140451;-66
2024/01/19 09:00:20;;;;;;;20.40;16.60;;;;;;;-2.41;100.00;99025.42;432849;1260;140064;-64
2024/01/19 09:10:26;;;;;;;19.00;15.70;;;;;;;-1.37;100.00;99034.48;433353;1260;141266;-63
2024/01/19 09:20:32;;;;;;;21.60;15.50;;;;;;;-0.22;100.00;99053.34;433527;1256;139815;-62
2024/01/19 09:30:38;;;;;;;25.50;18.00;;;;;;;0.16;100.00;99077.75;433033;1257;141403;-70
2024/01/19 09:40:45;;;;;;;36.30;20.60;;;;;;;1.02;100.00;99083.67;432689;1258;139737;-62
2024/01/19 09:50:55;;;;;;;25.70;18.50;;;;;;;1.61;100.00;99094.98;433036;1260;139579;-64
2024/01/19 10:01:02;;;;;;;24.90;16.60;;;;;;;1.03;99.57;99106.22;434489;1256;141416;-64
2024/01/19 10:11:10;;;;;;;26.00;18.80;;;;;;;0.07;99.52;99116.56;432908;1260;139763;-64
2024/01/19 10:21:26;;;;;;;27.10;18.60;;;;;;;-0.50;99.67;99119.64;434239;1255;139227;-61
2024/01/19 10:31:32;;;;;;;27.60;17.60;;;;;;;-0.86;99.97;99121.59;438309;1258;140612;-63
2024/01/19 10:41:38;;;;;;;22.00;14.70;;;;;;;-0.96;100.00;99123.71;432760;1256;140539;-63
2024/01/19 10:51:45;;;;;;;21.80;15.90;;;;;;;-0.92;100.00;99130.82;432775;1259;141298;-63
2024/01/19 11:01:59;;;;;;;21.50;15.90;;;;;;;-0.78;100.00;99128.95;433377;1260;140233;-63
2024/01/19 11:12:09;;;;;;;21.80;15.50;;;;;;;-0.74;100.00;99120.41;433180;1259;139944;-62
2024/01/19 11:22:15;;;;;;;21.70;15.40;;;;;;;-0.91;100.00;99118.95;434326;1259;139821;-63
2024/01/19 11:32:22;;;;;;;20.40;13.30;;;;;;;-1.00;100.00;99120.36;433290;1260;139546;-69
2024/01/19 11:42:48;;;;;;;22.70;14.40;;;;;;;-1.06;100.00;99124.13;433029;1259;139626;-68
2024/01/19 11:52:57;;;;;;;20.10;13.90;;;;;;;-1.26;100.00;99127.83;432977;1260;142235;-69
2024/01/19 12:03:03;;;;;;;21.70;13.60;;;;;;;-1.69;100.00;99120.88;438060;1255;139733;-64
2024/01/19 12:13:10;;;;;;;22.60;13.00;;;;;;;-2.07;100.00;99121.83;433056;1259;139585;-66
2024/01/19 12:23:18;;;;;;;19.50;14.70;;;;;;;-2.18;100.00;99123.25;435492;1256;140886;-63
2024/01/19 12:33:28;;;;;;;19.20;12.80;;;;;;;-2.11;100.00;99122.24;433557;1258;140689;-63
2024/01/19 12:43:35;;;;;;;26.90;17.30;;;;;;;-2.09;100.00;99123.59;435492;1258;139914;-63
2024/01/19 12:53:41;;;;;;;26.20;15.40;;;;;;;-2.09;100.00;99128.55;434808;1256;140720;-64
2024/01/19 13:03:46;;;;;;;20.80;13.00;;;;;;;-2.06;100.00;99142.56;433981;1260;139925;-70
2024/01/19 13:14:03;;;;;;;19.80;13.60;;;;;;;-2.03;100.00;99155.20;433338;1260;139721;-60
2024/01/19 13:24:09;;;;;;;16.70;11.90;;;;;;;-1.99;100.00;99161.98;435320;1259;139986;-62
2024/01/19 13:34:14;;;;;;;13.30;8.50;;;;;;;-1.92;100.00;99171.64;432794;1256;140395;-63
2024/01/19 13:44:20;;;;;;;21.60;11.20;;;;;;;-1.90;100.00;99186.17;433124;1256;140556;-62
2024/01/19 13:54:26;;;;;;;16.10;10.80;;;;;;;-1.97;100.00;99193.52;436918;1256;140614;-62
2024/01/19 14:04:33;;;;;;;16.60;12.00;;;;;;;-2.13;100.00;99200.84;433212;1256;141700;-62
2024/01/19 14:14:38;;;;;;;20.40;10.50;;;;;;;-2.30;100.00;99231.49;433246;1260;140656;-63
2024/01/19 14:24:44;;;;;;;14.90;10.90;;;;;;;-2.25;100.00;99248.38;432970;1258;193732;-63
2024/01/19 14:34:50;;;;;;;15.00;9.80;;;;;;;-2.17;100.00;99263.86;432719;1260;140850;-64
2024/01/19 14:45:04;;;;;;;15.50;9.00;;;;;;;-2.19;100.00;99269.55;432670;1260;140518;-62
2024/01/19 14:55:10;;;;;;;14.20;8.60;;;;;;;-2.22;100.00;99283.84;433887;1260;140497;-64
2024/01/19 15:05:17;;;;;;;13.10;9.30;;;;;;;-2.23;100.00;99298.59;435723;1259;141060;-61
2024/01/19 15:15:23;;;;;;;13.20;8.60;;;;;;;-2.22;100.00;99317.77;432863;1261;139994;-64
2024/01/19 15:25:29;;;;;;;11.00;8.90;;;;;;;-2.21;100.00;99330.81;432927;1256;139710;-62
2024/01/19 15:35:33;;;;;;;;;;;;;;;-2.24;100.00;99343.88;432855;1261;140198;-60
2024/01/19 15:45:39;;;;;;;14.70;11.10;;;;;;;-2.27;100.00;99353.70;432795;1260;126072;-60
2024/01/19 15:55:45;;;;;;;14.50;9.90;;;;;;;-2.31;100.00;99365.08;432825;1261;140399;-60
2024/01/19 16:05:52;;;;;;;14.80;10.30;;;;;;;-2.31;100.00;99374.50;436727;1260;139932;-61
2024/01/19 16:15:58;;;;;;;14.00;10.30;;;;;;;-2.32;100.00;99374.34;432973;1261;141447;-60
2024/01/19 16:26:04;;;;;;;12.50;9.70;;;;;;;-2.36;100.00;99392.77;432801;1256;141178;-65
2024/01/19 16:36:10;;;;;;;17.20;11.60;;;;;;;-2.41;100.00;99405.70;432661;1260;140527;-64
2024/01/19 16:46:20;;;;;;;11.20;10.00;;;;;;;-2.43;100.00;99421.64;432826;1260;140903;-64
2024/01/19 16:56:26;;;;;;;13.90;8.70;;;;;;;-2.44;100.00;99431.62;433956;1256;141182;-64
2024/01/19 17:06:33;;;;;;;11.20;7.40;;;;;;;-2.44;100.00;99443.80;433281;1260;139752;-64
2024/01/19 17:16:41;;;;;;;8.30;6.70;;;;;;;-2.46;100.00;99453.08;432804;1260;140483;-69
2024/01/19 17:26:49;;;;;;;8.60;6.10;;;;;;;-2.52;100.00;99458.45;434916;1262;139899;-64
2024/01/19 17:36:55;;;;;;;7.40;5.50;;;;;;;-2.56;100.00;99483.02;432829;1260;141425;-62
2024/01/19 17:47:01;;;;;;;10.30;6.60;;;;;;;-2.61;100.00;99495.93;437807;1260;139796;-62
2024/01/19 17:57:08;;;;;;;8.60;5.50;;;;;;;-2.68;100.00;99497.04;432905;1261;140118;-61
2024/01/19 18:07:13;;;;;;;8.50;5.60;;;;;;;-2.83;100.00;99515.02;434443;1257;140819;-62
2024/01/19 18:17:21;;;;;;;11.70;7.00;;;;;;;-2.97;100.00;99523.05;432808;1260;139863;-62
2024/01/19 18:27:29;;;;;;;6.80;5.80;;;;;;;-3.04;100.00;99533.56;433170;1260;139724;-63
2024/01/19 18:37:35;;;;;;;10.40;7.00;;;;;;;-3.00;100.00;99552.02;432778;1260;141276;-61
2024/01/19 18:47:41;;;;;;;10.70;6.10;;;;;;;-2.97;100.00;99562.44;432633;1258;140111;-62
2024/01/19 18:57:49;;;;;;;12.00;6.40;;;;;;;-2.97;100.00;99577.69;439466;1257;140059;-62
2024/01/19 19:07:55;;;;;;;8.10;6.00;;;;;;;-2.98;100.00;99581.29;437086;1257;140505;-63
2024/01/19 19:18:01;;;;;;;11.10;6.40;;;;;;;-2.96;100.00;99591.73;433134;1260;141250;-57
2024/01/19 19:28:08;;;;;;;10.60;6.90;;;;;;;-2.89;100.00;99605.89;432894;1259;140172;-57
2024/01/19 19:38:14;;;;;;;9.20;6.50;;;;;;;-2.83;100.00;99612.86;438182;1259;140442;-56
2024/01/19 19:48:20;;;;;;;10.70;6.50;;;;;;;-2.75;100.00;99628.89;432798;1260;139754;-55
2024/01/19 19:58:26;;;;;;;;;;;;;;;-2.67;100.00;99635.16;432776;1260;140201;-56
2024/01/19 20:08:31;;;;;;;10.30;6.10;;;;;;;-2.70;100.00;99646.16;433007;1257;126030;-57
2024/01/19 20:18:40;;;;;;;18.90;8.80;;;;;;;-2.68;100.00;99658.82;433226;1257;141356;-59
2024/01/19 20:28:47;;;;;;;14.10;8.80;;;;;;;-2.62;100.00;99666.84;433070;1258;139759;-56
2024/01/19 20:38:53;;;;;;;13.70;9.50;;;;;;;-2.64;100.00;99674.89;433461;1260;140782;-56
2024/01/19 20:48:58;;;;;;;;;;;;;;;-2.65;100.00;99683.30;433321;1260;140840;-53
2024/01/19 20:59:04;;;;;;;14.10;8.90;;;;;;;-2.74;100.00;99682.35;432871;1260;126804;-54
2024/01/19 21:09:10;;;;;;;12.40;8.20;;;;;;;-2.83;100.00;99689.79;433426;1257;140119;-54
2024/01/19 21:19:16;;;;;;;13.10;9.10;;;;;;;-2.90;100.00;99700.13;433166;1260;143220;-52
2024/01/19 21:29:20;;;;;;;;;;;;;;;-3.08;100.00;99710.67;433118;1257;141435;-54
2024/01/19 21:39:26;;;;;;;15.00;8.50;;;;;;;-3.28;100.00;99719.19;433655;1260;127331;-54
2024/01/19 21:49:30;;;;;;;;;;;;;;;-3.32;100.00;99725.02;432759;1260;140783;-53
2024/01/19 21:59:37;;;;;;;16.50;10.60;;;;;;;-3.30;100.00;99732.02;432889;1258;127030;-53
2024/01/19 22:09:43;;;;;;;14.30;10.10;;;;;;;-3.28;100.00;99741.10;433032;1260;140917;-53
2024/01/19 22:19:49;;;;;;;14.90;10.20;;;;;;;-3.27;100.00;99753.77;432878;1260;141331;-61
2024/01/19 22:29:55;;;;;;;14.10;10.10;;;;;;;-3.23;100.00;99765.39;432645;1256;140471;-53
2024/01/19 22:40:01;;;;;;;18.10;10.30;;;;;;;-3.17;100.00;99777.52;432815;1256;140178;-54
2024/01/19 22:50:06;;;;;;;;;;;;;;;-3.13;100.00;99778.02;433193;1259;139857;-53
2024/01/19 23:00:16;;;;;;;18.00;10.70;;;;;;;-3.11;100.00;99790.34;433747;1258;126803;-54
2024/01/19 23:10:23;;;;;;;16.10;11.80;;;;;;;-3.08;100.00;99795.80;434125;1257;140914;-53
2024/01/19 23:20:29;;;;;;;18.80;11.80;;;;;;;-3.06;100.00;99796.15;434631;1256;141197;-53
2024/01/19 23:30:35;;;;;;;14.10;9.70;;;;;;;-3.03;100.00;99804.86;433672;1260;141427;-54
2024/01/19 23:40:41;;;;;;;19.20;11.50;;;;;;;-2.99;100.00;99802.45;433058;1257;140966;-56
2024/01/19 23:50:48;;;;;;;16.90;9.80;;;;;;;-2.98;100.00;99800.38;433010;1258;141619;-55
